Elmira Corning Regional Airport
KELM : rendu visible

Aérodrome :











RETROUVEZ-NOUS SUR...

 
LOGIN :

S'inscrire | Disclaimer

   EN    FR    IT 

 









Légende :    VFR   VFR Marginal   IFR   IFR Intensif   IFR Très Intensif
Visi : 
Plafond : 
>= 8 km
>= 3000ft
5 à 8 km
1000 à 3000 ft
1500m à 5 km
500 à 1000 ft
800 à 1500m
200 à 500 ft
< 800m
< 200 ft
Symboles :   Orages  Brouillard  Fortes neiges  Fortes précipitations  Vent > 20 kt






- Altitude de l'aérodrome : 954 ft
- Code IATA : ELM


KELM - Elmira Corning Regional

DERNIER METAR :
  • 221953Z 24015G19KT 10SM CLR 07/M08 A3014 RMK AO2 SLP217 T00671078

METARs EXPIRÉS :
  • 221853Z 25012KT 10SM CLR 06/M08 A3016 RMK AO2 SLP224 T00611078
  • 221753Z 25009G18KT 10SM CLR 05/M08 A3018 RMK AO2 SLP229 T00501078 10050 21111 58018

TAF KELM
Valide du 22 à 18h jusqu'au 23 à 18h UTC


221721Z 2218/2318 25011KT P6SM SKC
FM230200 VRB03KT P6SM SKC



MET'MAP, la Météo Aéronautique d'un coup d'oeil ! - Copyright ORBIFLY Décembre 2007 - Disclaimer

ORBIFLY MET'MAP TEAM :

Programmation & Développement : Alexandra Zaïnal
Sur une idée originale de : Baudouin d'Aumeries
Assistance à la programmation : Marc-Olivier Méhu
Soutien technique & logistique : Manuel Goepfert

Contact : metmap@orbifly.com




SOURCES & CREDITS :

   NOAA       Earth
Advisory